sensor_id;sensor_type;location;lat;lon;timestamp;P1;P2;P0
30713;PMS7003;17465;47.934;33.430;2023-09-30T00:00:31;47.75;39.75;24.50
30713;PMS7003;17465;47.934;33.430;2023-09-30T00:03:02;45.50;38.00;24.75
30713;PMS7003;17465;47.934;33.430;2023-09-30T00:05:32;45.75;38.00;26.00
30713;PMS7003;17465;47.934;33.430;2023-09-30T00:08:03;44.50;37.00;23.00
30713;PMS7003;17465;47.934;33.430;2023-09-30T00:10:34;44.50;37.50;23.25
30713;PMS7003;17465;47.934;33.430;2023-09-30T00:13:04;44.00;37.75;25.50
30713;PMS7003;17465;47.934;33.430;2023-09-30T00:15:34;54.50;43.25;28.00
30713;PMS7003;17465;47.934;33.430;2023-09-30T00:18:05;47.75;40.50;26.00
30713;PMS7003;17465;47.934;33.430;2023-09-30T00:20:35;52.75;43.25;28.25
30713;PMS7003;17465;47.934;33.430;2023-09-30T00:23:06;55.50;44.75;29.00
30713;PMS7003;17465;47.934;33.430;2023-09-30T00:25:36;55.50;44.00;29.00
30713;PMS7003;17465;47.934;33.430;2023-09-30T00:28:06;60.00;48.00;31.75
30713;PMS7003;17465;47.934;33.430;2023-09-30T00:30:37;57.25;46.00;30.00
30713;PMS7003;17465;47.934;33.430;2023-09-30T00:33:07;55.50;46.00;31.00
30713;PMS7003;17465;47.934;33.430;2023-09-30T00:35:38;57.75;47.50;31.00
30713;PMS7003;17465;47.934;33.430;2023-09-30T00:38:08;57.25;46.25;28.00
30713;PMS7003;17465;47.934;33.430;2023-09-30T00:40:38;53.50;44.75;30.00
30713;PMS7003;17465;47.934;33.430;2023-09-30T00:43:17;50.75;43.25;31.50
30713;PMS7003;17465;47.934;33.430;2023-09-30T00:45:42;60.75;48.75;31.25
30713;PMS7003;17465;47.934;33.430;2023-09-30T00:48:13;54.25;44.00;30.75
30713;PMS7003;17465;47.934;33.430;2023-09-30T00:50:43;56.25;46.25;31.25
30713;PMS7003;17465;47.934;33.430;2023-09-30T00:53:14;56.75;46.75;31.50
30713;PMS7003;17465;47.934;33.430;2023-09-30T00:55:44;63.00;50.00;31.75
30713;PMS7003;17465;47.934;33.430;2023-09-30T00:58:15;61.50;48.00;31.50
30713;PMS7003;17465;47.934;33.430;2023-09-30T01:00:50;59.00;49.25;33.00
30713;PMS7003;17465;47.934;33.430;2023-09-30T01:03:21;59.50;48.00;30.00
30713;PMS7003;17465;47.934;33.430;2023-09-30T01:05:52;61.50;46.50;29.75
30713;PMS7003;17465;47.934;33.430;2023-09-30T01:08:23;59.00;46.75;29.75
30713;PMS7003;17465;47.934;33.430;2023-09-30T01:10:54;58.75;48.00;31.25
30713;PMS7003;17465;47.934;33.430;2023-09-30T01:13:31;55.00;44.50;31.00
30713;PMS7003;17465;47.934;33.430;2023-09-30T01:16:03;58.00;47.50;31.00
30713;PMS7003;17465;47.934;33.430;2023-09-30T01:18:35;52.75;44.00;29.00
30713;PMS7003;17465;47.934;33.430;2023-09-30T01:21:06;59.50;46.75;30.00
30713;PMS7003;17465;47.934;33.430;2023-09-30T01:23:37;52.75;43.25;27.25
30713;PMS7003;17465;47.934;33.430;2023-09-30T01:26:08;55.75;46.50;30.50
30713;PMS7003;17465;47.934;33.430;2023-09-30T01:28:40;56.00;45.00;29.25
30713;PMS7003;17465;47.934;33.430;2023-09-30T01:31:11;57.00;46.25;30.25
30713;PMS7003;17465;47.934;33.430;2023-09-30T01:33:41;61.00;48.00;31.00
30713;PMS7003;17465;47.934;33.430;2023-09-30T01:36:11;56.75;45.50;30.00
30713;PMS7003;17465;47.934;33.430;2023-09-30T01:38:41;53.75;44.75;28.25
30713;PMS7003;17465;47.934;33.430;2023-09-30T01:41:11;56.75;46.75;30.00
30713;PMS7003;17465;47.934;33.430;2023-09-30T01:43:42;57.00;47.00;31.00
30713;PMS7003;17465;47.934;33.430;2023-09-30T01:46:12;54.00;45.00;29.00
30713;PMS7003;17465;47.934;33.430;2023-09-30T01:48:42;55.25;43.75;28.25
30713;PMS7003;17465;47.934;33.430;2023-09-30T01:51:13;58.75;48.50;30.75
30713;PMS7003;17465;47.934;33.430;2023-09-30T01:53:43;54.50;45.75;30.00
30713;PMS7003;17465;47.934;33.430;2023-09-30T01:56:13;58.50;48.00;31.25
30713;PMS7003;17465;47.934;33.430;2023-09-30T01:58:44;57.75;48.00;31.00
30713;PMS7003;17465;47.934;33.430;2023-09-30T02:01:14;55.25;45.00;29.75
30713;PMS7003;17465;47.934;33.430;2023-09-30T02:03:44;54.50;44.25;28.00
30713;PMS7003;17465;47.934;33.430;2023-09-30T02:06:14;58.00;47.75;30.75
30713;PMS7003;17465;47.934;33.430;2023-09-30T02:08:45;60.00;47.75;31.00
30713;PMS7003;17465;47.934;33.430;2023-09-30T02:11:15;60.75;48.75;30.50
30713;PMS7003;17465;47.934;33.430;2023-09-30T02:13:45;57.25;47.00;29.00
30713;PMS7003;17465;47.934;33.430;2023-09-30T02:16:15;66.00;53.25;34.00
30713;PMS7003;17465;47.934;33.430;2023-09-30T02:18:45;64.50;52.50;34.00
30713;PMS7003;17465;47.934;33.430;2023-09-30T02:21:16;70.25;58.75;35.25
30713;PMS7003;17465;47.934;33.430;2023-09-30T02:23:46;72.25;57.25;35.25
30713;PMS7003;17465;47.934;33.430;2023-09-30T02:26:19;68.25;53.75;32.75
30713;PMS7003;17465;47.934;33.430;2023-09-30T02:28:49;67.00;53.75;34.75
30713;PMS7003;17465;47.934;33.430;2023-09-30T02:31:20;67.25;53.00;33.25
30713;PMS7003;17465;47.934;33.430;2023-09-30T02:33:51;67.25;55.00;34.00
30713;PMS7003;17465;47.934;33.430;2023-09-30T02:36:21;66.50;51.50;32.75
30713;PMS7003;17465;47.934;33.430;2023-09-30T02:38:54;65.25;52.25;32.00
30713;PMS7003;17465;47.934;33.430;2023-09-30T02:41:23;59.50;49.00;30.25
30713;PMS7003;17465;47.934;33.430;2023-09-30T02:43:53;61.00;49.00;30.75
30713;PMS7003;17465;47.934;33.430;2023-09-30T02:46:24;51.75;42.25;26.75
30713;PMS7003;17465;47.934;33.430;2023-09-30T02:48:54;57.75;47.00;31.25
30713;PMS7003;17465;47.934;33.430;2023-09-30T02:51:25;58.00;47.00;30.25
30713;PMS7003;17465;47.934;33.430;2023-09-30T02:53:57;56.50;46.75;29.25
30713;PMS7003;17465;47.934;33.430;2023-09-30T02:56:28;60.25;49.00;29.50
30713;PMS7003;17465;47.934;33.430;2023-09-30T02:58:59;56.00;46.75;29.25
30713;PMS7003;17465;47.934;33.430;2023-09-30T03:01:29;58.50;47.00;30.00
30713;PMS7003;17465;47.934;33.430;2023-09-30T03:04:00;54.25;43.25;28.00
30713;PMS7003;17465;47.934;33.430;2023-09-30T03:06:30;56.75;45.00;29.00
30713;PMS7003;17465;47.934;33.430;2023-09-30T03:09:01;52.75;43.75;27.75
30713;PMS7003;17465;47.934;33.430;2023-09-30T03:11:31;57.25;46.75;30.25
30713;PMS7003;17465;47.934;33.430;2023-09-30T03:14:01;50.25;42.25;28.00
30713;PMS7003;17465;47.934;33.430;2023-09-30T03:16:32;52.50;43.50;28.25
30713;PMS7003;17465;47.934;33.430;2023-09-30T03:19:03;51.25;42.50;27.00
30713;PMS7003;17465;47.934;33.430;2023-09-30T03:21:34;52.50;42.75;27.25
30713;PMS7003;17465;47.934;33.430;2023-09-30T03:24:04;52.75;43.50;27.25
30713;PMS7003;17465;47.934;33.430;2023-09-30T03:26:35;54.25;44.50;27.25
30713;PMS7003;17465;47.934;33.430;2023-09-30T03:29:09;46.00;38.25;27.00
30713;PMS7003;17465;47.934;33.430;2023-09-30T03:31:39;50.00;41.25;26.75
30713;PMS7003;17465;47.934;33.430;2023-09-30T03:34:11;54.00;44.75;29.00
30713;PMS7003;17465;47.934;33.430;2023-09-30T03:36:41;49.75;42.00;28.25
30713;PMS7003;17465;47.934;33.430;2023-09-30T03:39:15;55.25;45.50;31.25
30713;PMS7003;17465;47.934;33.430;2023-09-30T03:41:45;55.75;45.75;30.00
30713;PMS7003;17465;47.934;33.430;2023-09-30T03:44:15;56.25;45.00;29.25
30713;PMS7003;17465;47.934;33.430;2023-09-30T03:46:45;56.50;47.00;29.25
30713;PMS7003;17465;47.934;33.430;2023-09-30T03:49:15;60.25;47.00;30.75
30713;PMS7003;17465;47.934;33.430;2023-09-30T03:51:46;62.50;49.00;32.25
30713;PMS7003;17465;47.934;33.430;2023-09-30T03:54:16;59.00;48.25;30.25
30713;PMS7003;17465;47.934;33.430;2023-09-30T03:56:47;66.75;51.00;34.00
30713;PMS7003;17465;47.934;33.430;2023-09-30T03:59:17;66.00;52.00;34.75
30713;PMS7003;17465;47.934;33.430;2023-09-30T04:01:47;68.75;53.50;36.00
30713;PMS7003;17465;47.934;33.430;2023-09-30T04:04:17;68.25;53.00;33.75
30713;PMS7003;17465;47.934;33.430;2023-09-30T04:06:48;64.75;50.00;32.00
30713;PMS7003;17465;47.934;33.430;2023-09-30T04:09:18;63.75;51.00;33.00
30713;PMS7003;17465;47.934;33.430;2023-09-30T04:11:49;61.25;47.50;29.75
30713;PMS7003;17465;47.934;33.430;2023-09-30T04:14:19;56.00;46.50;31.00
30713;PMS7003;17465;47.934;33.430;2023-09-30T04:16:49;58.00;47.00;31.50
30713;PMS7003;17465;47.934;33.430;2023-09-30T04:19:28;52.25;43.75;28.50
30713;PMS7003;17465;47.934;33.430;2023-09-30T04:21:58;57.00;46.00;28.25
30713;PMS7003;17465;47.934;33.430;2023-09-30T04:24:28;56.25;45.00;29.25
30713;PMS7003;17465;47.934;33.430;2023-09-30T04:26:58;52.50;43.25;27.75
30713;PMS7003;17465;47.934;33.430;2023-09-30T04:29:29;50.75;41.75;27.25
30713;PMS7003;17465;47.934;33.430;2023-09-30T04:31:59;46.25;38.25;25.50
30713;PMS7003;17465;47.934;33.430;2023-09-30T04:34:30;48.00;39.75;26.00
30713;PMS7003;17465;47.934;33.430;2023-09-30T04:37:00;50.25;40.75;26.75
30713;PMS7003;17465;47.934;33.430;2023-09-30T04:39:33;50.00;42.75;26.00
30713;PMS7003;17465;47.934;33.430;2023-09-30T04:42:04;48.00;39.00;25.75
30713;PMS7003;17465;47.934;33.430;2023-09-30T04:44:34;46.00;39.75;25.50
30713;PMS7003;17465;47.934;33.430;2023-09-30T04:47:04;48.00;41.00;26.75
30713;PMS7003;17465;47.934;33.430;2023-09-30T04:49:34;50.00;41.75;27.00
30713;PMS7003;17465;47.934;33.430;2023-09-30T04:52:05;48.00;41.00;25.75
30713;PMS7003;17465;47.934;33.430;2023-09-30T04:54:35;48.00;41.00;26.75
30713;PMS7003;17465;47.934;33.430;2023-09-30T04:57:05;49.75;41.50;26.00
30713;PMS7003;17465;47.934;33.430;2023-09-30T04:59:35;47.25;40.00;27.25
30713;PMS7003;17465;47.934;33.430;2023-09-30T05:02:05;44.00;36.25;23.00
30713;PMS7003;17465;47.934;33.430;2023-09-30T05:04:36;47.75;38.25;24.50
30713;PMS7003;17465;47.934;33.430;2023-09-30T05:07:06;49.75;42.00;27.75
30713;PMS7003;17465;47.934;33.430;2023-09-30T05:09:36;51.00;42.75;27.00
30713;PMS7003;17465;47.934;33.430;2023-09-30T05:12:06;49.50;41.75;27.50
30713;PMS7003;17465;47.934;33.430;2023-09-30T05:14:40;48.00;38.50;26.75
30713;PMS7003;17465;47.934;33.430;2023-09-30T05:17:10;50.25;41.75;26.50
30713;PMS7003;17465;47.934;33.430;2023-09-30T05:19:41;54.00;44.00;27.00
30713;PMS7003;17465;47.934;33.430;2023-09-30T05:22:12;51.50;41.75;24.50
30713;PMS7003;17465;47.934;33.430;2023-09-30T05:24:42;49.00;41.50;27.00
30713;PMS7003;17465;47.934;33.430;2023-09-30T05:27:12;47.75;40.00;27.00
30713;PMS7003;17465;47.934;33.430;2023-09-30T05:29:42;50.00;40.25;27.00
30713;PMS7003;17465;47.934;33.430;2023-09-30T05:32:13;47.75;41.25;28.00
30713;PMS7003;17465;47.934;33.430;2023-09-30T05:34:43;53.75;45.25;27.75
30713;PMS7003;17465;47.934;33.430;2023-09-30T05:37:14;53.75;43.75;28.25
30713;PMS7003;17465;47.934;33.430;2023-09-30T05:39:44;54.00;44.00;29.00
30713;PMS7003;17465;47.934;33.430;2023-09-30T05:42:15;58.00;46.75;30.25
30713;PMS7003;17465;47.934;33.430;2023-09-30T05:44:46;53.25;44.00;28.75
30713;PMS7003;17465;47.934;33.430;2023-09-30T05:47:17;55.25;45.25;29.75
30713;PMS7003;17465;47.934;33.430;2023-09-30T05:49:47;57.25;46.75;30.00
30713;PMS7003;17465;47.934;33.430;2023-09-30T05:52:17;54.50;44.25;29.00
30713;PMS7003;17465;47.934;33.430;2023-09-30T05:54:47;61.00;46.25;30.00
30713;PMS7003;17465;47.934;33.430;2023-09-30T05:57:18;57.25;45.00;30.50
30713;PMS7003;17465;47.934;33.430;2023-09-30T05:59:48;58.00;46.50;31.25
30713;PMS7003;17465;47.934;33.430;2023-09-30T06:02:18;56.00;45.00;30.00
30713;PMS7003;17465;47.934;33.430;2023-09-30T06:04:49;61.00;48.25;31.00
30713;PMS7003;17465;47.934;33.430;2023-09-30T06:07:19;59.25;47.50;31.00
30713;PMS7003;17465;47.934;33.430;2023-09-30T06:09:50;57.00;46.25;31.00
30713;PMS7003;17465;47.934;33.430;2023-09-30T06:12:21;56.75;46.00;31.25
30713;PMS7003;17465;47.934;33.430;2023-09-30T06:14:51;59.75;48.00;31.00
30713;PMS7003;17465;47.934;33.430;2023-09-30T06:17:24;60.00;47.00;31.75
30713;PMS7003;17465;47.934;33.430;2023-09-30T06:19:53;58.50;47.75;31.75
30713;PMS7003;17465;47.934;33.430;2023-09-30T06:22:23;56.75;46.25;31.75
30713;PMS7003;17465;47.934;33.430;2023-09-30T06:25:01;60.75;51.00;35.50
30713;PMS7003;17465;47.934;33.430;2023-09-30T06:27:28;59.00;48.00;30.75
30713;PMS7003;17465;47.934;33.430;2023-09-30T06:29:59;60.00;50.00;35.00
30713;PMS7003;17465;47.934;33.430;2023-09-30T06:32:30;63.50;53.25;34.50
30713;PMS7003;17465;47.934;33.430;2023-09-30T06:35:01;63.50;51.25;32.50
30713;PMS7003;17465;47.934;33.430;2023-09-30T06:37:34;60.25;50.25;34.25
30713;PMS7003;17465;47.934;33.430;2023-09-30T06:40:10;55.50;46.00;31.00
30713;PMS7003;17465;47.934;33.430;2023-09-30T06:42:45;55.25;44.75;29.50
30713;PMS7003;17465;47.934;33.430;2023-09-30T06:45:15;61.75;49.00;31.75
30713;PMS7003;17465;47.934;33.430;2023-09-30T06:47:45;57.50;46.25;33.25
30713;PMS7003;17465;47.934;33.430;2023-09-30T06:50:15;57.40;46.40;30.80
30713;PMS7003;17465;47.934;33.430;2023-09-30T06:52:46;59.00;48.20;33.80
30713;PMS7003;17465;47.934;33.430;2023-09-30T06:55:16;58.00;46.80;30.80
30713;PMS7003;17465;47.934;33.430;2023-09-30T06:57:47;56.20;46.00;32.00
30713;PMS7003;17465;47.934;33.430;2023-09-30T07:00:17;58.20;47.20;33.20
30713;PMS7003;17465;47.934;33.430;2023-09-30T07:02:48;55.40;45.40;29.40
30713;PMS7003;17465;47.934;33.430;2023-09-30T07:05:19;51.80;42.80;27.80
30713;PMS7003;17465;47.934;33.430;2023-09-30T07:07:52;53.20;43.60;29.40
30713;PMS7003;17465;47.934;33.430;2023-09-30T07:10:22;51.80;42.00;28.80
30713;PMS7003;17465;47.934;33.430;2023-09-30T07:12:53;54.00;43.40;30.20
30713;PMS7003;17465;47.934;33.430;2023-09-30T07:15:24;55.40;44.20;30.00
30713;PMS7003;17465;47.934;33.430;2023-09-30T07:17:54;55.20;45.00;30.20
30713;PMS7003;17465;47.934;33.430;2023-09-30T07:20:28;51.40;41.80;27.80
30713;PMS7003;17465;47.934;33.430;2023-09-30T07:23:19;50.20;40.40;27.20
30713;PMS7003;17465;47.934;33.430;2023-09-30T07:25:49;53.40;42.60;28.60
30713;PMS7003;17465;47.934;33.430;2023-09-30T07:28:21;50.60;42.20;29.20
30713;PMS7003;17465;47.934;33.430;2023-09-30T07:30:51;42.60;35.80;24.20
30713;PMS7003;17465;47.934;33.430;2023-09-30T07:33:22;49.00;41.00;26.20
30713;PMS7003;17465;47.934;33.430;2023-09-30T07:35:52;44.40;36.40;25.20
30713;PMS7003;17465;47.934;33.430;2023-09-30T07:38:22;46.20;38.40;24.80
30713;PMS7003;17465;47.934;33.430;2023-09-30T07:40:53;40.80;34.60;23.60
30713;PMS7003;17465;47.934;33.430;2023-09-30T07:43:23;47.60;38.40;25.00
30713;PMS7003;17465;47.934;33.430;2023-09-30T07:45:55;46.20;38.40;25.60
30713;PMS7003;17465;47.934;33.430;2023-09-30T07:48:29;45.00;38.00;25.20
30713;PMS7003;17465;47.934;33.430;2023-09-30T07:51:01;46.00;38.80;26.00
30713;PMS7003;17465;47.934;33.430;2023-09-30T07:53:33;39.00;32.60;22.60
30713;PMS7003;17465;47.934;33.430;2023-09-30T07:56:03;45.60;38.20;25.80
30713;PMS7003;17465;47.934;33.430;2023-09-30T07:58:34;44.60;36.40;25.40
30713;PMS7003;17465;47.934;33.430;2023-09-30T08:01:13;43.60;36.60;25.20
30713;PMS7003;17465;47.934;33.430;2023-09-30T08:03:42;99.00;97.25;64.25
30713;PMS7003;17465;47.934;33.430;2023-09-30T08:06:13;46.40;38.60;26.00
30713;PMS7003;17465;47.934;33.430;2023-09-30T08:08:43;45.20;36.80;24.80
30713;PMS7003;17465;47.934;33.430;2023-09-30T08:11:25;48.80;40.00;26.40
30713;PMS7003;17465;47.934;33.430;2023-09-30T08:13:53;49.80;39.40;27.40
30713;PMS7003;17465;47.934;33.430;2023-09-30T08:16:23;46.00;38.80;26.20
30713;PMS7003;17465;47.934;33.430;2023-09-30T08:18:57;44.80;38.00;25.40
30713;PMS7003;17465;47.934;33.430;2023-09-30T08:21:29;44.40;37.40;25.40
30713;PMS7003;17465;47.934;33.430;2023-09-30T08:24:01;41.40;35.00;24.00
30713;PMS7003;17465;47.934;33.430;2023-09-30T08:26:36;43.00;35.40;24.00
30713;PMS7003;17465;47.934;33.430;2023-09-30T08:29:09;39.20;33.60;23.80
30713;PMS7003;17465;47.934;33.430;2023-09-30T08:31:39;40.20;34.20;23.20
30713;PMS7003;17465;47.934;33.430;2023-09-30T08:34:09;36.80;31.80;23.20
30713;PMS7003;17465;47.934;33.430;2023-09-30T08:36:43;23.60;23.60;16.80
30713;PMS7003;17465;47.934;33.430;2023-09-30T08:39:13;26.40;25.00;18.40
30713;PMS7003;17465;47.934;33.430;2023-09-30T08:41:43;30.80;28.80;19.60
30713;PMS7003;17465;47.934;33.430;2023-09-30T08:44:13;36.80;29.60;20.20
30713;PMS7003;17465;47.934;33.430;2023-09-30T08:46:47;28.40;26.80;18.00
30713;PMS7003;17465;47.934;33.430;2023-09-30T08:49:27;28.80;26.40;17.80
30713;PMS7003;17465;47.934;33.430;2023-09-30T08:51:59;28.00;26.80;18.20
30713;PMS7003;17465;47.934;33.430;2023-09-30T08:54:31;31.20;27.80;19.60
30713;PMS7003;17465;47.934;33.430;2023-09-30T08:57:09;28.40;27.20;18.20
30713;PMS7003;17465;47.934;33.430;2023-09-30T09:02:42;55.40;44.80;31.20
30713;PMS7003;17465;47.934;33.430;2023-09-30T09:05:13;54.80;43.80;32.20
30713;PMS7003;17465;47.934;33.430;2023-09-30T09:07:49;26.60;25.80;18.00
30713;PMS7003;17465;47.934;33.430;2023-09-30T09:10:19;25.60;25.20;17.00
30713;PMS7003;17465;47.934;33.430;2023-09-30T09:12:57;23.40;23.40;17.60
30713;PMS7003;17465;47.934;33.430;2023-09-30T09:15:28;27.20;25.20;18.00
30713;PMS7003;17465;47.934;33.430;2023-09-30T09:18:04;25.00;24.40;18.00
30713;PMS7003;17465;47.934;33.430;2023-09-30T09:20:31;20.40;19.40;13.80
30713;PMS7003;17465;47.934;33.430;2023-09-30T09:23:04;21.20;21.00;14.40
30713;PMS7003;17465;47.934;33.430;2023-09-30T09:25:44;18.80;18.00;13.00
30713;PMS7003;17465;47.934;33.430;2023-09-30T09:28:10;19.20;19.20;14.60
30713;PMS7003;17465;47.934;33.430;2023-09-30T09:30:41;23.60;22.00;16.60
30713;PMS7003;17465;47.934;33.430;2023-09-30T09:33:16;22.20;21.80;16.00
30713;PMS7003;17465;47.934;33.430;2023-09-30T09:35:46;19.60;18.00;14.40
30713;PMS7003;17465;47.934;33.430;2023-09-30T09:38:19;29.60;27.80;19.00
30713;PMS7003;17465;47.934;33.430;2023-09-30T09:40:52;89.25;87.75;64.75
30713;PMS7003;17465;47.934;33.430;2023-09-30T09:43:25;50.40;41.60;27.80
30713;PMS7003;17465;47.934;33.430;2023-09-30T09:45:59;40.40;34.20;22.80
30713;PMS7003;17465;47.934;33.430;2023-09-30T09:48:36;25.40;25.20;18.00
30713;PMS7003;17465;47.934;33.430;2023-09-30T09:51:08;32.80;29.80;19.20
30713;PMS7003;17465;47.934;33.430;2023-09-30T09:53:40;23.20;21.40;16.20
30713;PMS7003;17465;47.934;33.430;2023-09-30T09:56:14;22.60;22.60;15.80
30713;PMS7003;17465;47.934;33.430;2023-09-30T09:58:50;18.60;18.60;14.60
30713;PMS7003;17465;47.934;33.430;2023-09-30T10:01:22;21.00;20.60;15.40
30713;PMS7003;17465;47.934;33.430;2023-09-30T10:04:01;25.40;24.60;16.80
30713;PMS7003;17465;47.934;33.430;2023-09-30T10:06:46;19.80;19.00;11.20
30713;PMS7003;17465;47.934;33.430;2023-09-30T10:09:20;20.80;20.80;15.00
30713;PMS7003;17465;47.934;33.430;2023-09-30T10:11:59;21.00;21.00;16.00
30713;PMS7003;17465;47.934;33.430;2023-09-30T10:14:33;20.80;20.60;14.60
30713;PMS7003;17465;47.934;33.430;2023-09-30T10:17:04;23.40;23.40;17.20
30713;PMS7003;17465;47.934;33.430;2023-09-30T10:19:34;27.20;26.20;16.80
30713;PMS7003;17465;47.934;33.430;2023-09-30T10:24:56;23.80;23.80;17.00
30713;PMS7003;17465;47.934;33.430;2023-09-30T10:27:27;24.20;23.40;17.00
30713;PMS7003;17465;47.934;33.430;2023-09-30T10:30:03;24.80;24.60;17.00
30713;PMS7003;17465;47.934;33.430;2023-09-30T10:43:45;27.20;24.40;17.20
30713;PMS7003;17465;47.934;33.430;2023-09-30T10:49:37;28.40;24.40;15.20
30713;PMS7003;17465;47.934;33.430;2023-09-30T10:51:57;29.00;26.40;16.80
30713;PMS7003;17465;47.934;33.430;2023-09-30T10:54:29;23.00;22.40;15.40
30713;PMS7003;17465;47.934;33.430;2023-09-30T10:57:03;26.00;25.60;18.40
30713;PMS7003;17465;47.934;33.430;2023-09-30T10:59:36;27.00;26.00;18.80
30713;PMS7003;17465;47.934;33.430;2023-09-30T11:02:18;22.00;22.00;17.80
30713;PMS7003;17465;47.934;33.430;2023-09-30T11:04:49;23.60;23.20;18.20
30713;PMS7003;17465;47.934;33.430;2023-09-30T11:07:22;71.25;67.50;47.75
30713;PMS7003;17465;47.934;33.430;2023-09-30T11:09:53;18.80;18.40;12.20
30713;PMS7003;17465;47.934;33.430;2023-09-30T11:12:33;34.60;30.80;19.40
30713;PMS7003;17465;47.934;33.430;2023-09-30T11:15:00;21.00;21.00;16.20
30713;PMS7003;17465;47.934;33.430;2023-09-30T11:17:32;26.20;25.40;18.60
30713;PMS7003;17465;47.934;33.430;2023-09-30T11:20:03;25.40;24.40;17.00
30713;PMS7003;17465;47.934;33.430;2023-09-30T11:22:34;25.00;24.80;19.20
30713;PMS7003;17465;47.934;33.430;2023-09-30T11:25:14;24.00;23.00;15.00
30713;PMS7003;17465;47.934;33.430;2023-09-30T11:27:46;23.00;22.60;17.00
30713;PMS7003;17465;47.934;33.430;2023-09-30T11:33:11;23.00;23.00;17.20
30713;PMS7003;17465;47.934;33.430;2023-09-30T11:35:41;22.00;22.00;17.80
30713;PMS7003;17465;47.934;33.430;2023-09-30T11:38:18;21.20;19.40;14.80
30713;PMS7003;17465;47.934;33.430;2023-09-30T11:41:00;22.40;22.00;16.20
30713;PMS7003;17465;47.934;33.430;2023-09-30T11:43:34;25.00;24.20;17.00
30713;PMS7003;17465;47.934;33.430;2023-09-30T11:46:10;22.00;21.20;15.60
30713;PMS7003;17465;47.934;33.430;2023-09-30T11:48:57;21.80;21.20;15.40
30713;PMS7003;17465;47.934;33.430;2023-09-30T11:51:41;23.20;21.40;16.80
30713;PMS7003;17465;47.934;33.430;2023-09-30T11:54:33;22.00;22.00;14.80
30713;PMS7003;17465;47.934;33.430;2023-09-30T11:57:16;19.60;19.60;14.00
30713;PMS7003;17465;47.934;33.430;2023-09-30T11:59:47;20.40;20.20;13.20
30713;PMS7003;17465;47.934;33.430;2023-09-30T12:02:21;22.80;22.80;17.00
30713;PMS7003;17465;47.934;33.430;2023-09-30T12:04:51;20.00;20.00;13.80
30713;PMS7003;17465;47.934;33.430;2023-09-30T12:07:27;21.40;21.40;16.20
30713;PMS7003;17465;47.934;33.430;2023-09-30T12:10:01;21.40;21.40;16.00
30713;PMS7003;17465;47.934;33.430;2023-09-30T12:12:34;20.60;20.60;13.40
30713;PMS7003;17465;47.934;33.430;2023-09-30T12:15:08;22.60;22.60;17.00
30713;PMS7003;17465;47.934;33.430;2023-09-30T12:17:38;22.60;22.60;16.80
30713;PMS7003;17465;47.934;33.430;2023-09-30T12:20:09;19.00;19.00;14.40
30713;PMS7003;17465;47.934;33.430;2023-09-30T12:22:49;21.60;20.40;15.80
30713;PMS7003;17465;47.934;33.430;2023-09-30T12:25:20;21.00;20.20;15.20
30713;PMS7003;17465;47.934;33.430;2023-09-30T12:27:50;21.00;20.40;15.20
30713;PMS7003;17465;47.934;33.430;2023-09-30T12:30:26;23.60;22.40;17.00
30713;PMS7003;17465;47.934;33.430;2023-09-30T12:32:54;19.40;19.40;15.40
30713;PMS7003;17465;47.934;33.430;2023-09-30T12:35:27;23.00;21.80;15.00
30713;PMS7003;17465;47.934;33.430;2023-09-30T12:37:58;21.80;21.60;16.00
30713;PMS7003;17465;47.934;33.430;2023-09-30T12:40:28;19.20;18.60;13.80
30713;PMS7003;17465;47.934;33.430;2023-09-30T12:43:00;19.00;18.20;13.00
30713;PMS7003;17465;47.934;33.430;2023-09-30T12:45:37;18.20;17.40;13.00
30713;PMS7003;17465;47.934;33.430;2023-09-30T12:48:07;20.60;20.00;14.60
30713;PMS7003;17465;47.934;33.430;2023-09-30T12:50:50;19.20;19.20;14.40
30713;PMS7003;17465;47.934;33.430;2023-09-30T12:53:25;18.20;18.00;13.60
30713;PMS7003;17465;47.934;33.430;2023-09-30T12:56:22;18.20;18.20;14.60
30713;PMS7003;17465;47.934;33.430;2023-09-30T12:58:56;17.80;17.80;13.20
30713;PMS7003;17465;47.934;33.430;2023-09-30T13:01:31;18.00;18.00;13.60
30713;PMS7003;17465;47.934;33.430;2023-09-30T13:04:05;17.80;17.80;12.00
30713;PMS7003;17465;47.934;33.430;2023-09-30T13:06:42;19.20;19.00;14.60
30713;PMS7003;17465;47.934;33.430;2023-09-30T13:09:11;15.60;15.00;11.00
30713;PMS7003;17465;47.934;33.430;2023-09-30T13:11:44;18.40;18.40;14.40
30713;PMS7003;17465;47.934;33.430;2023-09-30T13:14:14;18.20;18.00;12.60
30713;PMS7003;17465;47.934;33.430;2023-09-30T13:17:01;18.00;18.00;12.40
30713;PMS7003;17465;47.934;33.430;2023-09-30T13:19:31;20.00;20.00;15.60
30713;PMS7003;17465;47.934;33.430;2023-09-30T13:22:04;17.20;17.20;12.60
30713;PMS7003;17465;47.934;33.430;2023-09-30T13:24:52;17.00;16.80;12.40
30713;PMS7003;17465;47.934;33.430;2023-09-30T13:27:34;18.80;18.80;13.00
30713;PMS7003;17465;47.934;33.430;2023-09-30T13:30:05;19.40;19.00;14.40
30713;PMS7003;17465;47.934;33.430;2023-09-30T13:33:01;20.00;19.20;12.80
30713;PMS7003;17465;47.934;33.430;2023-09-30T13:35:22;17.20;16.40;11.40
30713;PMS7003;17465;47.934;33.430;2023-09-30T13:37:53;14.80;12.80;11.00
30713;PMS7003;17465;47.934;33.430;2023-09-30T13:40:23;17.40;17.40;12.40
30713;PMS7003;17465;47.934;33.430;2023-09-30T13:42:55;19.00;19.00;14.20
30713;PMS7003;17465;47.934;33.430;2023-09-30T13:45:25;20.40;20.40;15.20
30713;PMS7003;17465;47.934;33.430;2023-09-30T13:47:59;20.00;20.00;14.00
30713;PMS7003;17465;47.934;33.430;2023-09-30T13:50:31;19.60;19.60;14.60
30713;PMS7003;17465;47.934;33.430;2023-09-30T13:53:02;18.00;18.00;14.00
30713;PMS7003;17465;47.934;33.430;2023-09-30T13:55:32;19.20;19.20;13.20
30713;PMS7003;17465;47.934;33.430;2023-09-30T13:58:04;18.00;17.80;11.20
30713;PMS7003;17465;47.934;33.430;2023-09-30T14:00:35;19.20;18.00;13.40
30713;PMS7003;17465;47.934;33.430;2023-09-30T14:03:05;18.40;18.40;12.00
30713;PMS7003;17465;47.934;33.430;2023-09-30T14:05:35;19.20;19.20;13.00
30713;PMS7003;17465;47.934;33.430;2023-09-30T14:08:06;20.80;19.00;14.60
30713;PMS7003;17465;47.934;33.430;2023-09-30T14:10:44;17.40;16.80;12.20
30713;PMS7003;17465;47.934;33.430;2023-09-30T14:13:17;19.60;19.60;13.20
30713;PMS7003;17465;47.934;33.430;2023-09-30T14:15:49;21.20;21.20;14.00
30713;PMS7003;17465;47.934;33.430;2023-09-30T14:18:33;21.20;20.60;14.40
30713;PMS7003;17465;47.934;33.430;2023-09-30T14:21:06;20.40;20.40;15.20
30713;PMS7003;17465;47.934;33.430;2023-09-30T14:23:38;22.40;21.00;15.80